Time;durP1;ratioP1;P1;durP2;ratioP2;P2;SDS_P1;SDS_P2;PMS_P1;PMS_P2;Temp;Humidity;BMP_temperature;BMP_pressure;BME280_temperature;BME280_humidity;BME280_pressure;Samples;Min_cycle;Max_cycle;Signal;HPM_P1;HPM_P2
2023/03/12 00:00:41;;;;;;;13.32;9.35;;;179.20;2252.80;;;;;;4970876;28;20109;-55
2023/03/12 00:03:08;;;;;;;48.70;27.67;;;154.50;2252.80;;;;;;4970988;28;20035;-54
2023/03/12 00:05:37;;;;;;;20.95;11.10;;;154.50;2252.80;;;;;;4971350;28;20030;-55
2023/03/12 00:08:02;;;;;;;20.85;14.02;;;179.20;2252.80;;;;;;4971386;28;20035;-56
2023/03/12 00:10:29;;;;;;;24.48;12.20;;;154.50;2252.80;;;;;;4970704;28;20022;-55
2023/03/12 00:12:55;;;;;;;55.80;32.92;;;154.50;2252.80;;;;;;4971208;28;20458;-54
2023/03/12 00:15:20;;;;;;;10.73;7.25;;;154.40;2252.80;;;;;;4971089;28;20037;-54
2023/03/12 00:17:46;;;;;;;11.57;7.28;;;154.30;2252.80;;;;;;4971051;28;20035;-53
2023/03/12 00:20:13;;;;;;;12.15;7.30;;;154.40;2252.80;;;;;;4970992;28;20118;-55
2023/03/12 00:22:39;;;;;;;44.53;24.80;;;154.30;2252.80;;;;;;4970654;28;20556;-54
2023/03/12 00:25:06;;;;;;;15.23;9.00;;;154.30;2252.80;;;;;;4970588;28;20027;-53
2023/03/12 00:27:33;;;;;;;16.95;11.68;;;154.40;2252.80;;;;;;4971044;28;20437;-54
2023/03/12 00:29:59;;;;;;;18.75;10.65;;;154.40;2252.80;;;;;;4970637;28;20130;-54
2023/03/12 00:32:24;;;;;;;25.92;14.05;;;154.30;2252.80;;;;;;4970444;28;20521;-54
2023/03/12 00:34:54;;;;;;;16.48;11.02;;;154.20;2252.80;;;;;;4970673;28;20369;-53
2023/03/12 00:37:21;;;;;;;35.22;22.60;;;154.30;2252.80;;;;;;4970858;28;20034;-54
2023/03/12 00:39:47;;;;;;;15.40;9.52;;;154.20;2252.80;;;;;;4970503;28;20489;-53
2023/03/12 00:42:13;;;;;;;13.23;9.00;;;154.20;2252.80;;;;;;4970780;28;20053;-55
2023/03/12 00:44:39;;;;;;;14.75;9.80;;;154.30;2252.80;;;;;;4970505;28;20039;-53
2023/03/12 00:47:05;;;;;;;14.18;9.35;;;154.10;2252.80;;;;;;4970501;28;20030;-54
2023/03/12 00:49:30;;;;;;;16.05;11.35;;;154.20;2252.80;;;;;;4983222;28;21504;-55
2023/03/12 00:51:56;;;;;;;21.52;12.68;;;154.20;2252.80;;;;;;4970500;28;20050;-56
2023/03/12 00:54:22;;;;;;;16.92;10.68;;;154.30;2252.80;;;;;;4970556;28;20034;-56
2023/03/12 00:56:48;;;;;;;12.55;9.48;;;154.20;2252.80;;;;;;4970550;28;20106;-55
2023/03/12 00:59:15;;;;;;;29.60;18.95;;;154.10;2252.80;;;;;;4970445;28;20053;-56
2023/03/12 01:01:42;;;;;;;16.27;9.50;;;154.10;2252.80;;;;;;4970798;28;20106;-56
2023/03/12 01:04:08;;;;;;;13.50;10.27;;;154.20;2252.80;;;;;;4970238;28;20113;-55
2023/03/12 01:06:34;;;;;;;13.63;9.18;;;154.20;2252.80;;;;;;4970891;28;20031;-56
2023/03/12 01:09:04;;;;;;;18.83;10.90;;;154.10;2252.80;;;;;;4970432;28;20363;-56
2023/03/12 01:11:31;;;;;;;17.75;11.10;;;154.00;2252.80;;;;;;4970602;28;20029;-56
2023/03/12 01:13:58;;;;;;;16.90;11.25;;;153.90;2252.80;;;;;;4970349;28;20101;-54
2023/03/12 01:16:27;;;;;;;18.42;11.93;;;153.90;2252.80;;;;;;4970526;28;20097;-55
2023/03/12 01:18:54;;;;;;;11.77;8.13;;;153.90;2252.80;;;;;;4970707;28;20077;-55
2023/03/12 01:21:19;;;;;;;14.50;8.32;;;153.90;2252.80;;;;;;4960324;28;20038;-53
2023/03/12 01:23:45;;;;;;;15.18;9.45;;;153.80;2252.80;;;;;;4980283;28;20031;-54
2023/03/12 01:26:11;;;;;;;13.23;7.57;;;153.90;2252.80;;;;;;4970463;28;20114;-56
2023/03/12 01:28:37;;;;;;;10.55;6.10;;;153.90;2252.80;;;;;;4970021;28;20057;-55
2023/03/12 01:31:11;;;;;;;8.32;6.60;;;153.80;2252.80;;;;;;4970430;28;20097;-55
2023/03/12 01:33:37;;;;;;;13.77;7.57;;;153.80;2252.80;;;;;;4970462;28;20131;-55
2023/03/12 01:36:03;;;;;;;10.30;6.43;;;153.70;2252.80;;;;;;4970674;28;20055;-55
2023/03/12 01:38:29;;;;;;;12.68;8.80;;;153.70;2252.80;;;;;;4970159;28;20065;-54
2023/03/12 01:40:54;;;;;;;14.40;8.93;;;153.70;2252.80;;;;;;4969969;28;20023;-54
2023/03/12 01:43:32;;;;;;;11.82;8.13;;;153.70;2252.80;;;;;;4970000;28;20046;-55
2023/03/12 01:46:25;;;;;;;10.50;7.20;;;153.70;2252.80;;;;;;4960177;28;20470;-53
2023/03/12 01:48:56;;;;;;;11.82;7.80;;;153.60;2252.80;;;;;;4973948;28;20054;-55
2023/03/12 01:51:25;;;;;;;13.65;9.00;;;153.60;2252.80;;;;;;4973464;28;20027;-55
2023/03/12 01:53:55;;;;;;;14.13;7.70;;;153.60;2252.80;;;;;;4973507;28;20485;-55
2023/03/12 01:56:21;;;;;;;13.27;8.48;;;128.90;2252.80;;;;;;4973653;28;20027;-55
2023/03/12 01:58:53;;;;;;;16.25;10.35;;;128.90;2252.80;;;;;;4973345;28;20030;-53
2023/03/12 02:01:20;;;;;;;10.23;7.20;;;128.90;2252.80;;;;;;4973263;28;20490;-55
2023/03/12 02:03:50;;;;;;;12.43;6.75;;;128.90;2252.80;;;;;;4973397;28;20103;-50
2023/03/12 02:06:22;;;;;;;11.60;8.13;;;153.60;2252.80;;;;;;4973222;28;20165;-54
2023/03/12 02:08:49;;;;;;;10.90;6.63;;;128.70;2252.80;;;;;;4973130;28;20038;-51
2023/03/12 02:11:14;;;;;;;11.48;7.00;;;128.60;2252.80;;;;;;4973245;28;20369;-53
2023/03/12 02:13:40;;;;;;;11.18;6.70;;;128.70;2252.80;;;;;;4973540;28;20027;-55
2023/03/12 02:16:07;;;;;;;20.83;14.05;;;128.70;2252.80;;;;;;4973291;28;20374;-55
2023/03/12 02:18:34;;;;;;;10.20;5.95;;;128.80;2252.80;;;;;;4973144;28;20578;-55
2023/03/12 02:21:07;;;;;;;10.80;7.65;;;128.70;2252.80;;;;;;4973203;28;20027;-56
2023/03/12 02:23:51;;;;;;;11.60;7.90;;;128.70;2252.80;;;;;;4973065;28;20039;-56
2023/03/12 02:26:17;;;;;;;15.73;8.98;;;128.60;2252.80;;;;;;4972916;28;20071;-55
2023/03/12 02:28:44;;;;;;;15.45;10.32;;;128.60;2252.80;;;;;;4972978;28;20425;-53
2023/03/12 02:31:17;;;;;;;57.55;31.63;;;128.40;2252.80;;;;;;4972866;28;20057;-55
2023/03/12 02:33:42;;;;;;;50.83;29.23;;;128.40;2252.80;;;;;;4972778;28;20030;-55
2023/03/12 02:36:08;;;;;;;17.55;9.55;;;128.50;2252.80;;;;;;4972884;28;20023;-54
2023/03/12 02:38:36;;;;;;;29.73;15.48;;;128.50;2252.80;;;;;;4973039;28;20536;-53
2023/03/12 02:41:24;;;;;;;119.40;60.30;;;128.40;2252.80;;;;;;4972896;28;20019;-52
2023/03/12 02:44:13;;;;;;;32.88;15.82;;;128.40;2252.80;;;;;;4963118;28;20086;-55
2023/03/12 02:46:45;;;;;;;16.25;7.10;;;128.40;2252.80;;;;;;4949755;28;20035;-56
2023/03/12 02:49:12;;;;;;;19.88;10.68;;;128.40;2252.80;;;;;;4959816;28;20070;-56
2023/03/12 02:51:38;;;;;;;20.02;9.57;;;128.40;2252.80;;;;;;4972652;28;20470;-55
2023/03/12 02:54:04;;;;;;;11.18;7.32;;;128.50;2252.80;;;;;;4972373;28;20026;-53
2023/03/12 02:56:30;;;;;;;17.05;10.75;;;128.50;2252.80;;;;;;4972389;28;20477;-56
2023/03/12 02:58:55;;;;;;;15.23;9.43;;;128.50;2252.80;;;;;;4971881;28;20134;-56
2023/03/12 03:01:21;;;;;;;22.35;17.10;;;128.50;2252.80;;;;;;4972548;28;20093;-56
2023/03/12 03:03:47;;;;;;;16.20;12.00;;;128.70;2252.80;;;;;;4972063;28;20088;-55
2023/03/12 03:06:13;;;;;;;15.75;10.10;;;128.70;2252.80;;;;;;4972404;28;20077;-55
2023/03/12 03:08:39;;;;;;;16.92;9.50;;;128.60;2252.80;;;;;;4971749;28;20033;-56
2023/03/12 03:11:06;;;;;;;17.17;10.68;;;128.50;2252.80;;;;;;4972370;28;20023;-55
2023/03/12 03:13:33;;;;;;;11.73;7.65;;;128.50;2252.80;;;;;;4971318;28;20027;-58
2023/03/12 03:16:00;;;;;;;30.85;16.42;;;128.60;2252.80;;;;;;4960210;28;20051;-55
2023/03/12 03:18:27;;;;;;;13.30;8.35;;;128.50;2252.80;;;;;;4971441;28;20050;-55
2023/03/12 03:20:59;;;;;;;25.17;14.38;;;128.40;2252.80;;;;;;4972209;28;20054;-53
2023/03/12 03:23:25;;;;;;;21.52;12.55;;;128.20;2252.80;;;;;;4971587;28;20114;-55
2023/03/12 03:25:51;;;;;;;11.43;6.97;;;128.20;2252.80;;;;;;4972042;28;20159;-56
2023/03/12 03:28:18;;;;;;;92.97;46.38;;;128.10;2252.80;;;;;;4971885;28;20117;-56
2023/03/12 03:30:44;;;;;;;17.08;11.15;;;128.00;2252.80;;;;;;4971976;28;20565;-52
2023/03/12 03:33:10;;;;;;;11.88;7.40;;;103.30;2227.20;;;;;;4971763;28;20035;-55
2023/03/12 03:35:36;;;;;;;27.25;15.15;;;103.30;2227.20;;;;;;4971506;28;20394;-54
2023/03/12 03:38:02;;;;;;;12.35;7.35;;;103.30;2227.20;;;;;;4971795;28;20477;-56
2023/03/12 03:40:28;;;;;;;9.75;5.82;;;103.30;2227.20;;;;;;4971429;28;20038;-56
2023/03/12 03:42:54;;;;;;;9.88;6.60;;;103.30;2227.20;;;;;;4971599;28;20043;-57
2023/03/12 03:45:20;;;;;;;15.18;9.52;;;103.10;2227.20;;;;;;4971679;28;20122;-56
2023/03/12 03:47:46;;;;;;;11.48;7.45;;;103.10;2227.20;;;;;;4971119;28;20089;-56
2023/03/12 03:50:12;;;;;;;11.38;8.05;;;103.20;2227.20;;;;;;4971430;28;20051;-54
2023/03/12 03:52:37;;;;;;;18.08;11.50;;;103.10;2227.20;;;;;;4970907;28;20114;-53
2023/03/12 03:55:04;;;;;;;15.43;10.77;;;102.80;2227.20;;;;;;4971295;28;20107;-54
2023/03/12 03:57:30;;;;;;;13.65;9.38;;;102.70;2227.20;;;;;;4969408;28;20355;-56
2023/03/12 03:59:57;;;;;;;8.88;5.88;;;102.50;2227.20;;;;;;4960369;28;20037;-55
2023/03/12 04:02:24;;;;;;;13.65;7.38;;;102.50;2227.20;;;;;;4971173;28;20085;-57
2023/03/12 04:04:50;;;;;;;10.60;6.82;;;102.70;2227.20;;;;;;4971467;28;20508;-55
2023/03/12 04:07:16;;;;;;;8.98;5.03;;;102.70;2227.20;;;;;;4970179;28;20058;-53
2023/03/12 04:09:42;;;;;;;9.52;6.10;;;102.60;2227.20;;;;;;4971264;28;20049;-56
2023/03/12 04:12:08;;;;;;;7.85;5.07;;;102.60;2227.20;;;;;;4970837;28;20452;-55
2023/03/12 04:14:34;;;;;;;9.45;5.55;;;102.60;2227.20;;;;;;4971219;28;20034;-54
2023/03/12 04:17:00;;;;;;;7.82;5.07;;;102.60;2227.20;;;;;;4970895;28;20377;-56
2023/03/12 04:19:26;;;;;;;5.93;4.20;;;102.60;2227.20;;;;;;4971229;28;20046;-55
2023/03/12 04:21:51;;;;;;;25.50;15.30;;;102.60;2227.20;;;;;;4971029;28;20481;-55
2023/03/12 04:24:19;;;;;;;8.90;5.75;;;102.70;2227.20;;;;;;4970766;28;20039;-56
2023/03/12 04:26:44;;;;;;;8.65;5.00;;;102.80;2227.20;;;;;;4970598;28;20077;-53
2023/03/12 04:29:10;;;;;;;8.02;4.90;;;102.80;2227.20;;;;;;4970736;28;20129;-56
2023/03/12 04:31:36;;;;;;;12.65;7.90;;;102.70;2227.20;;;;;;4970743;28;20034;-54
2023/03/12 04:34:02;;;;;;;12.57;7.82;;;102.70;2227.20;;;;;;4971263;28;20035;-55
2023/03/12 04:36:28;;;;;;;23.10;13.68;;;102.70;2227.20;;;;;;4970668;28;20063;-59
2023/03/12 04:38:55;;;;;;;47.10;24.42;;;102.70;2227.20;;;;;;4970932;28;20121;-56
2023/03/12 04:41:20;;;;;;;15.32;9.77;;;102.70;2227.20;;;;;;4970830;28;20037;-56
2023/03/12 04:43:46;;;;;;;60.10;30.80;;;102.60;2227.20;;;;;;4970645;28;20039;-56
2023/03/12 04:46:12;;;;;;;15.52;8.65;;;102.70;2227.20;;;;;;4970835;28;20034;-56
2023/03/12 04:48:38;;;;;;;13.30;7.43;;;102.60;2227.20;;;;;;4970834;28;20039;-56
2023/03/12 04:51:05;;;;;;;37.97;19.35;;;102.50;2227.20;;;;;;4970591;28;20035;-55
2023/03/12 04:53:31;;;;;;;8.82;5.40;;;102.40;2227.20;;;;;;4970614;28;20121;-55
2023/03/12 04:55:57;;;;;;;53.03;26.20;;;102.40;2227.20;;;;;;4970227;28;20031;-55
2023/03/12 04:58:22;;;;;;;73.10;35.05;;;102.40;2227.20;;;;;;4970725;28;20094;-56
2023/03/12 05:00:49;;;;;;;20.95;10.48;;;102.40;2227.20;;;;;;4970397;28;20039;-55
2023/03/12 05:03:16;;;;;;;12.35;7.35;;;77.70;2227.20;;;;;;4970791;28;20049;-55
2023/03/12 05:05:42;;;;;;;53.08;24.65;;;77.70;2227.20;;;;;;4970695;28;20023;-55
2023/03/12 05:08:07;;;;;;;42.40;19.33;;;77.70;2227.20;;;;;;4970242;28;20082;-55
2023/03/12 05:10:33;;;;;;;17.42;11.85;;;77.70;2227.20;;;;;;4970313;28;20065;-56
2023/03/12 05:12:59;;;;;;;6.97;4.30;;;102.40;2227.20;;;;;;4970337;28;20035;-55
2023/03/12 05:15:25;;;;;;;8.10;4.03;;;102.40;2227.20;;;;;;4970110;28;20054;-54
2023/03/12 05:17:50;;;;;;;7.35;4.05;;;102.50;2227.20;;;;;;4970772;28;20022;-55
2023/03/12 05:20:16;;;;;;;8.40;5.20;;;102.40;2227.20;;;;;;4973998;28;20030;-56
2023/03/12 05:22:42;;;;;;;7.05;5.20;;;102.50;2227.20;;;;;;4974292;28;20034;-56
2023/03/12 05:25:08;;;;;;;7.63;4.43;;;102.50;2227.20;;;;;;4973541;28;20038;-56
2023/03/12 05:27:34;;;;;;;15.02;10.43;;;102.40;2227.20;;;;;;4974197;28;20030;-56
2023/03/12 05:30:00;;;;;;;11.80;7.20;;;102.40;2227.20;;;;;;4973817;28;20033;-55
2023/03/12 05:32:26;;;;;;;27.00;16.00;;;102.40;2227.20;;;;;;4973743;28;20109;-54
2023/03/12 05:34:52;;;;;;;16.38;9.13;;;102.60;2227.20;;;;;;4973960;28;20037;-56
2023/03/12 05:37:18;;;;;;;30.10;15.52;;;102.50;2227.20;;;;;;4974022;28;20030;-55
2023/03/12 05:39:45;;;;;;;74.00;40.85;;;102.50;2227.20;;;;;;4973650;28;20474;-55
2023/03/12 05:42:14;;;;;;;60.80;32.83;;;102.80;2227.20;;;;;;4973872;28;20035;-55
2023/03/12 05:44:41;;;;;;;248.40;147.60;;;102.70;2227.20;;;;;;4973937;28;20035;-55
2023/03/12 05:47:07;;;;;;;67.45;32.67;;;102.70;2227.20;;;;;;4973494;28;20027;-55
2023/03/12 05:49:33;;;;;;;65.18;32.83;;;102.60;2227.20;;;;;;4973793;28;20402;-55
2023/03/12 05:51:58;;;;;;;58.30;33.97;;;102.50;2227.20;;;;;;4973644;28;20538;-55
2023/03/12 05:54:24;;;;;;;18.15;11.48;;;102.80;2227.20;;;;;;4973495;28;20100;-56
2023/03/12 05:56:51;;;;;;;41.65;37.30;;;102.80;2227.20;;;;;;4973912;28;20027;-56
2023/03/12 05:59:16;;;;;;;20.17;16.30;;;102.80;2227.20;;;;;;4973233;28;20037;-55
2023/03/12 06:01:42;;;;;;;15.25;11.07;;;102.80;2227.20;;;;;;4973693;28;20117;-55
2023/03/12 06:04:08;;;;;;;11.82;8.25;;;102.70;2227.20;;;;;;4973414;28;20034;-54
2023/03/12 06:06:35;;;;;;;75.45;41.00;;;102.80;2227.20;;;;;;4973374;28;20150;-56
2023/03/12 06:09:02;;;;;;;15.85;9.38;;;102.80;2227.20;;;;;;4973139;28;20478;-56
2023/03/12 06:11:28;;;;;;;10.93;7.72;;;102.90;2227.20;;;;;;4973304;28;20043;-55
2023/03/12 06:13:56;;;;;;;10.63;8.02;;;103.00;2227.20;;;;;;4973230;28;20485;-56
2023/03/12 06:16:24;;;;;;;9.27;6.75;;;102.90;2227.20;;;;;;4973140;28;20025;-55
2023/03/12 06:18:58;;;;;;;13.90;7.68;;;103.00;2227.20;;;;;;4973438;28;20165;-56
2023/03/12 06:21:30;;;;;;;9.63;7.50;;;103.10;2227.20;;;;;;4973108;28;20462;-56
2023/03/12 06:23:56;;;;;;;12.13;6.32;;;128.70;2252.80;;;;;;4972779;28;20039;-55
2023/03/12 06:26:22;;;;;;;11.50;9.23;;;205.20;2252.80;;;;;;4973250;28;20027;-56
2023/03/12 06:28:49;;;;;;;17.63;15.93;;;256.20;2048.00;;;;;;4972987;28;20041;-55
2023/03/12 06:31:16;;;;;;;12.35;10.88;;;307.40;1894.40;;;;;;4959852;28;20050;-55
2023/03/12 06:33:42;;;;;;;9.32;7.53;;;333.40;1766.40;;;;;;4972511;28;20031;-56
2023/03/12 06:36:09;;;;;;;82.43;50.05;;;359.00;1664.00;;;;;;4972867;28;20025;-56
2023/03/12 06:38:36;;;;;;;13.18;8.90;;;384.90;1587.20;;;;;;4972921;28;20086;-55
2023/03/12 06:41:07;;;;;;;8.95;6.45;;;410.00;1536.00;;;;;;4973125;28;20023;-56
2023/03/12 06:43:35;;;;;;;8.45;7.05;;;410.00;1510.40;;;;;;4972647;28;20520;-57
2023/03/12 06:46:01;;;;;;;18.30;12.93;;;409.90;1484.80;;;;;;4972806;28;20023;-53
2023/03/12 06:48:29;;;;;;;9.52;7.38;;;409.90;1510.40;;;;;;4972825;28;20062;-57
2023/03/12 06:50:55;;;;;;;9.52;8.55;;;410.10;1484.80;;;;;;4972158;28;20044;-55
2023/03/12 06:53:22;;;;;;;9.45;8.45;;;435.30;1459.20;;;;;;4972559;28;20038;-56
2023/03/12 06:55:49;;;;;;;8.52;6.80;;;460.80;1433.60;;;;;;4970428;28;20109;-54
2023/03/12 06:58:15;;;;;;;7.47;6.65;;;435.90;1408.00;;;;;;4961593;28;20474;-55
2023/03/12 07:00:41;;;;;;;10.88;7.90;;;461.20;1408.00;;;;;;4972281;28;20029;-53
2023/03/12 07:03:07;;;;;;;8.35;6.30;;;486.90;1305.60;;;;;;4972294;28;20074;-56
2023/03/12 07:05:33;;;;;;;6.50;5.63;;;461.50;1305.60;;;;;;4972754;28;20027;-53
2023/03/12 07:07:58;;;;;;;16.10;10.27;;;486.70;1305.60;;;;;;4972465;28;20097;-57
2023/03/12 07:10:26;;;;;;;9.13;8.20;;;487.00;1254.40;;;;;;4971501;28;20030;-56
2023/03/12 07:12:52;;;;;;;12.82;11.05;;;487.00;1228.80;;;;;;4972300;28;20031;-57
2023/03/12 07:15:18;;;;;;;12.85;10.73;;;487.00;1280.00;;;;;;4971801;28;20027;-56
2023/03/12 07:17:44;;;;;;;15.85;11.68;;;487.10;1228.80;;;;;;4972498;28;20109;-56
2023/03/12 07:20:10;;;;;;;13.90;9.88;;;486.70;1254.40;;;;;;4971813;28;20049;-55
2023/03/12 07:22:36;;;;;;;8.82;7.93;;;487.30;1228.80;;;;;;4966357;28;20059;-56
2023/03/12 07:25:02;;;;;;;8.60;7.60;;;512.50;1177.60;;;;;;4968728;28;20055;-58
2023/03/12 07:27:27;;;;;;;9.93;7.00;;;512.90;1203.20;;;;;;4971405;28;20102;-53
2023/03/12 07:29:53;;;;;;;7.50;5.70;;;512.30;1203.20;;;;;;4952441;28;20574;-57
2023/03/12 07:32:19;;;;;;;6.65;5.07;;;512.40;1203.20;;;;;;4962235;28;20023;-56
2023/03/12 07:34:44;;;;;;;5.65;4.45;;;487.30;1228.80;;;;;;4968644;28;20110;-57
2023/03/12 07:37:10;;;;;;;8.75;7.05;;;537.90;1177.60;;;;;;4952996;28;20370;-57
2023/03/12 07:39:36;;;;;;;10.23;8.27;;;537.60;1177.60;;;;;;4952119;28;20118;-56
2023/03/12 07:42:02;;;;;;;20.00;17.90;;;538.50;1126.40;;;;;;4951533;28;20422;-57
2023/03/12 07:44:28;;;;;;;11.18;9.60;;;538.00;1126.40;;;;;;4961372;28;20034;-56
2023/03/12 07:46:53;;;;;;;7.07;5.65;;;563.30;1152.00;;;;;;4971550;28;20117;-55
2023/03/12 07:49:19;;;;;;;8.48;7.68;;;538.50;1126.40;;;;;;4971215;28;20073;-57
2023/03/12 07:51:45;;;;;;;5.95;5.38;;;563.50;1126.40;;;;;;4970833;28;20086;-56
2023/03/12 07:54:11;;;;;;;7.65;5.45;;;564.00;1075.20;;;;;;4971380;28;20030;-56
2023/03/12 07:56:37;;;;;;;6.43;5.82;;;564.10;1075.20;;;;;;4970891;28;20023;-57
2023/03/12 07:59:03;;;;;;;7.55;6.28;;;589.40;1075.20;;;;;;4971664;28;20124;-57
2023/03/12 08:01:31;;;;;;;10.05;9.13;;;589.30;1075.20;;;;;;4971093;28;20085;-59
2023/03/12 08:04:00;;;;;;;6.85;5.80;;;589.30;1075.20;;;;;;4971172;28;20073;-71
2023/03/12 08:06:26;;;;;;;12.25;6.28;;;614.60;1049.60;;;;;;4958205;28;20027;-72
2023/03/12 08:08:52;;;;;;;8.50;7.70;;;640.10;998.40;;;;;;4971272;28;20030;-69
2023/03/12 08:11:18;;;;;;;12.43;11.23;;;665.60;972.80;;;;;;4971407;28;20644;-73
2023/03/12 08:13:43;;;;;;;10.52;9.52;;;666.50;947.20;;;;;;4970527;28;20043;-76
2023/03/12 08:16:09;;;;;;;5.78;5.28;;;666.00;972.80;;;;;;4971122;28;20026;-74
2023/03/12 08:18:35;;;;;;;8.00;7.20;;;665.70;972.80;;;;;;4971249;28;20462;-70
2023/03/12 08:21:01;;;;;;;4.43;3.70;;;640.20;947.20;;;;;;4971240;28;20019;-72
2023/03/12 08:23:26;;;;;;;4.68;4.28;;;640.70;921.60;;;;;;4970635;28;20034;-71
2023/03/12 08:25:53;;;;;;;42.22;38.13;;;665.90;921.60;;;;;;4971171;28;20031;-69
2023/03/12 08:28:21;;;;;;;5.40;4.97;;;666.20;896.00;;;;;;4970815;28;20110;-72
2023/03/12 08:30:52;;;;;;;8.82;7.93;;;691.40;870.40;;;;;;4970589;28;20026;-70
2023/03/12 08:33:19;;;;;;;6.50;5.85;;;640.90;896.00;;;;;;4970844;28;20057;-72
2023/03/12 08:35:45;;;;;;;8.60;7.72;;;614.80;947.20;;;;;;4970948;28;20023;-75
2023/03/12 08:38:11;;;;;;;6.13;5.20;;;615.30;896.00;;;;;;4970874;28;20118;-73
2023/03/12 08:40:37;;;;;;;5.20;4.70;;;640.00;896.00;;;;;;4970677;28;20102;-76
2023/03/12 08:43:03;;;;;;;4.60;4.20;;;615.30;921.60;;;;;;4970811;28;20031;-77
2023/03/12 08:45:29;;;;;;;78.47;67.38;;;640.50;896.00;;;;;;4970507;28;20030;-77
2023/03/12 08:47:55;;;;;;;40.97;34.90;;;666.40;921.60;;;;;;4970860;28;20482;-71
2023/03/12 08:50:21;;;;;;;6.93;6.25;;;640.30;921.60;;;;;;4953487;28;20051;-78
2023/03/12 08:52:47;;;;;;;23.63;21.30;;;615.30;921.60;;;;;;4951162;28;20031;-77
2023/03/12 08:55:13;;;;;;;10.45;7.97;;;589.00;972.80;;;;;;4946156;28;20513;-70
2023/03/12 08:57:39;;;;;;;31.40;28.85;;;589.20;998.40;;;;;;4974630;28;20059;-75
2023/03/12 09:00:10;;;;;;;6.63;6.03;;;614.50;972.80;;;;;;4974457;28;20065;-75
2023/03/12 09:02:37;;;;;;;7.93;6.95;;;615.20;947.20;;;;;;4974722;28;20109;-79
2023/03/12 09:05:03;;;;;;;14.02;9.57;;;614.90;947.20;;;;;;4957483;28;20382;-75
2023/03/12 09:07:30;;;;;;;20.85;18.65;;;614.80;947.20;;;;;;4973112;28;20080;-69
2023/03/12 09:09:56;;;;;;;15.88;14.18;;;615.00;947.20;;;;;;4974241;28;20948;-78
2023/03/12 09:12:23;;;;;;;7.53;6.75;;;589.70;972.80;;;;;;4974526;28;20023;-78
2023/03/12 09:14:49;;;;;;;4.50;3.88;;;563.20;998.40;;;;;;4973426;28;20030;-79
2023/03/12 09:17:15;;;;;;;5.97;5.38;;;512.40;998.40;;;;;;4973934;28;20031;-73
2023/03/12 09:19:41;;;;;;;7.15;6.30;;;486.60;1049.60;;;;;;4974125;28;20160;-77
2023/03/12 09:22:06;;;;;;;11.00;7.63;;;461.70;1100.80;;;;;;4973679;28;20363;-71
2023/03/12 09:24:33;;;;;;;5.93;4.50;;;435.80;1126.40;;;;;;4961208;28;20039;-67
2023/03/12 09:26:58;;;;;;;14.32;12.85;;;435.50;1152.00;;;;;;4974036;28;20023;-66
2023/03/12 09:29:24;;;;;;;7.93;4.85;;;409.60;1228.80;;;;;;4973392;28;20030;-70
2023/03/12 09:31:50;;;;;;;7.60;5.72;;;384.90;1203.20;;;;;;4973658;28;20031;-66
2023/03/12 09:34:16;;;;;;;15.80;11.15;;;384.20;1228.80;;;;;;4974025;28;20031;-67
2023/03/12 09:36:42;;;;;;;7.55;6.03;;;359.30;1254.40;;;;;;4973559;28;20027;-74
2023/03/12 09:39:08;;;;;;;5.55;4.43;;;358.90;1254.40;;;;;;4954302;28;20093;-66
2023/03/12 09:41:40;;;;;;;4.63;3.42;;;359.00;1254.40;;;;;;4954818;28;20028;-75
2023/03/12 09:44:29;;;;;;;8.32;6.53;;;358.50;1280.00;;;;;;4969140;28;20118;-70
2023/03/12 09:46:59;;;;;;;7.53;5.45;;;358.90;1280.00;;;;;;4964386;28;20030;-66
2023/03/12 09:49:40;;;;;;;5.72;3.67;;;333.70;1331.20;;;;;;4954219;28;20467;-65
2023/03/12 09:52:29;;;;;;;8.05;6.03;;;333.70;1356.80;;;;;;4956223;28;20478;-72
2023/03/12 09:55:14;;;;;;;6.65;4.45;;;358.70;1331.20;;;;;;4972926;28;20511;-68
2023/03/12 09:57:40;;;;;;;8.65;6.25;;;358.50;1331.20;;;;;;4973163;28;20023;-66
2023/03/12 10:00:33;;;;;;;7.65;5.85;;;333.50;1382.40;;;;;;4966933;28;20019;-69
2023/03/12 10:03:18;;;;;;;7.63;5.82;;;333.60;1408.00;;;;;;4950749;28;20445;-68
2023/03/12 10:05:44;;;;;;;5.50;3.83;;;333.60;1382.40;;;;;;4953205;28;20031;-72
2023/03/12 10:08:30;;;;;;;16.05;12.95;;;333.30;1408.00;;;;;;4973315;28;20078;-76
2023/03/12 10:11:07;;;;;;;11.85;7.07;;;333.70;1382.40;;;;;;4973093;28;20062;-66
2023/03/12 10:13:49;;;;;;;5.82;4.78;;;333.30;1382.40;;;;;;4973402;28;20483;-66
2023/03/12 10:16:24;;;;;;;6.18;5.43;;;332.80;1382.40;;;;;;4973046;28;20082;-67
2023/03/12 10:19:14;;;;;;;9.45;6.45;;;308.10;1382.40;;;;;;4973198;28;20101;-66
2023/03/12 10:22:18;;;;;;;18.23;14.57;;;308.10;1356.80;;;;;;4973189;28;20034;-66
2023/03/12 10:25:13;;;;;;;9.20;6.25;;;308.10;1356.80;;;;;;4972944;28;20081;-68
2023/03/12 10:27:40;;;;;;;23.73;20.08;;;307.60;1356.80;;;;;;4931907;29;20031;-67
2023/03/12 10:30:19;;;;;;;22.55;16.20;;;307.30;1408.00;;;;;;4931813;29;20104;-67
2023/03/12 10:32:49;;;;;;;7.72;4.35;;;307.30;1433.60;;;;;;4932439;29;20036;-67
2023/03/12 10:35:21;;;;;;;8.23;4.30;;;282.50;1459.20;;;;;;4932132;29;20119;-69
2023/03/12 10:37:50;;;;;;;18.33;12.45;;;307.30;1484.80;;;;;;4932104;29;20031;-67
2023/03/12 10:40:20;;;;;;;6.47;4.10;;;307.30;1459.20;;;;;;4931688;29;20570;-67
2023/03/12 10:42:47;;;;;;;5.15;3.42;;;282.50;1433.60;;;;;;4931750;29;20020;-68
2023/03/12 10:45:43;;;;;;;9.38;7.90;;;282.20;1433.60;;;;;;4932151;29;20036;-67
2023/03/12 10:48:16;;;;;;;8.32;7.25;;;282.40;1459.20;;;;;;4838511;29;20045;-70
2023/03/12 10:50:42;;;;;;;6.90;3.78;;;307.20;1484.80;;;;;;4838346;29;20471;-73
2023/03/12 10:53:16;;;;;;;15.45;10.75;;;282.30;1510.40;;;;;;4838351;29;20034;-74
2023/03/12 10:55:42;;;;;;;15.35;11.27;;;281.70;1484.80;;;;;;4838101;29;20026;-77
2023/03/12 10:58:21;;;;;;;13.00;11.75;;;282.20;1484.80;;;;;;4855651;29;20041;-68
2023/03/12 11:00:56;;;;;;;7.18;5.22;;;281.80;1510.40;;;;;;4856566;29;20184;-76
2023/03/12 11:03:22;;;;;;;4.75;3.03;;;281.60;1510.40;;;;;;4857133;29;20082;-77
2023/03/12 11:06:14;;;;;;;8.65;5.00;;;281.70;1484.80;;;;;;4890437;29;20482;-68
2023/03/12 11:08:41;;;;;;;5.57;4.43;;;281.80;1484.80;;;;;;4893625;29;20101;-77
2023/03/12 11:11:08;;;;;;;7.18;5.90;;;281.70;1510.40;;;;;;4893739;29;20136;-68
2023/03/12 11:13:38;;;;;;;7.43;5.78;;;281.90;1484.80;;;;;;4893872;29;20047;-68
2023/03/12 11:16:16;;;;;;;14.25;11.90;;;281.60;1484.80;;;;;;4893688;29;21042;-69
2023/03/12 11:18:58;;;;;;;8.70;4.78;;;281.90;1484.80;;;;;;4893372;29;20056;-67
2023/03/12 11:21:24;;;;;;;8.00;4.97;;;281.60;1510.40;;;;;;4893837;29;20385;-69
2023/03/12 11:23:56;;;;;;;4.60;2.85;;;256.60;1510.40;;;;;;4893089;29;20467;-67
2023/03/12 11:26:27;;;;;;;11.25;6.18;;;256.70;1510.40;;;;;;4952409;28;20027;-67
2023/03/12 11:29:26;;;;;;;7.35;4.80;;;256.60;1510.40;;;;;;4952488;28;20394;-74
2023/03/12 11:32:02;;;;;;;4.60;3.20;;;281.60;1510.40;;;;;;4952962;28;20063;-72
2023/03/12 11:34:31;;;;;;;15.70;8.57;;;256.80;1484.80;;;;;;4952193;28;20034;-74
2023/03/12 11:37:38;;;;;;;5.88;2.90;;;281.60;1459.20;;;;;;4952830;28;20046;-77
2023/03/12 11:40:33;;;;;;;5.50;3.65;;;281.60;1510.40;;;;;;4893332;29;20480;-68
2023/03/12 11:43:11;;;;;;;6.00;4.00;;;281.60;1510.40;;;;;;4892933;29;20044;-76
2023/03/12 11:46:13;;;;;;;7.45;5.15;;;281.70;1510.40;;;;;;4892997;29;20028;-72
2023/03/12 11:48:45;;;;;;;7.70;4.53;;;281.70;1510.40;;;;;;4896749;29;20067;-71
2023/03/12 11:51:34;;;;;;;7.57;3.47;;;281.70;1510.40;;;;;;4930768;29;20042;-67
2023/03/12 11:54:07;;;;;;;7.28;4.22;;;256.90;1484.80;;;;;;4930526;29;20043;-67
2023/03/12 11:56:38;;;;;;;6.13;4.53;;;256.80;1459.20;;;;;;4930901;29;20067;-69
2023/03/12 11:59:25;;;;;;;4.95;3.50;;;256.90;1510.40;;;;;;4930560;29;20067;-67
2023/03/12 12:02:11;;;;;;;29.45;16.35;;;256.90;1484.80;;;;;;4930846;29;20098;-67
2023/03/12 12:04:37;;;;;;;6.25;3.90;;;256.70;1484.80;;;;;;4930470;29;20127;-67
2023/03/12 12:07:08;;;;;;;24.63;14.57;;;281.80;1510.40;;;;;;4930487;29;20115;-67
2023/03/12 12:09:53;;;;;;;22.98;15.63;;;281.80;1510.40;;;;;;4930611;29;20662;-67
2023/03/12 12:13:03;;;;;;;6.78;4.25;;;281.90;1536.00;;;;;;4930357;29;20027;-67
2023/03/12 12:15:54;;;;;;;5.25;3.95;;;281.60;1510.40;;;;;;4939245;29;20430;-71
2023/03/12 12:18:41;;;;;;;6.68;4.10;;;256.90;1510.40;;;;;;4892701;29;20036;-67